Time;durP1;ratioP1;P1;durP2;ratioP2;P2;SDS_P1;SDS_P2;PMS_P1;PMS_P2;Temp;Humidity;BMP_temperature;BMP_pressure;BME280_temperature;BME280_humidity;BME280_pressure;Samples;Min_cycle;Max_cycle;Signal;HPM_P1;HPM_P2
2022/05/27 00:02:09;;;;;;;11.55;2.63;;;;;;;8.17;79.84;99779.06;5043974;28;20104;-58
2022/05/27 00:04:42;;;;;;;5.05;2.63;;;;;;;8.31;79.01;99791.00;5043694;28;20049;-58
2022/05/27 00:07:14;;;;;;;3.88;2.03;;;;;;;8.15;78.52;99787.78;5043561;28;20061;-59
2022/05/27 00:09:45;;;;;;;9.52;2.80;;;;;;;8.03;79.60;99780.16;5044324;28;20784;-57
2022/05/27 00:12:15;;;;;;;9.63;2.88;;;;;;;8.26;79.11;99793.69;5043875;28;20064;-57
2022/05/27 00:14:46;;;;;;;11.30;2.85;;;;;;;8.68;79.29;99775.72;5043452;28;20115;-58
2022/05/27 00:17:16;;;;;;;10.05;3.08;;;;;;;9.09;77.98;99770.69;5043230;28;20370;-57
2022/05/27 00:19:47;;;;;;;9.27;2.78;;;;;;;9.44;76.58;99775.25;5043337;28;20218;-57
2022/05/27 00:22:19;;;;;;;7.93;2.25;;;;;;;9.43;74.18;99766.53;5043462;28;20404;-58
2022/05/27 00:24:50;;;;;;;6.78;2.85;;;;;;;9.19;75.15;99777.47;5043931;28;20071;-57
2022/05/27 00:27:21;;;;;;;6.15;3.25;;;;;;;9.25;75.63;99767.75;5043182;28;20052;-57
2022/05/27 00:29:51;;;;;;;14.25;3.38;;;;;;;9.22;74.80;99741.75;5043455;28;20098;-57
2022/05/27 00:32:30;;;;;;;;;;;;;;;9.42;75.32;99770.03;5042995;28;20107;-58
2022/05/27 00:35:01;;;;;;;10.40;3.28;;;;;;;9.52;74.52;99781.16;5043529;28;20011;-58
2022/05/27 00:37:33;;;;;;;8.35;2.50;;;;;;;9.38;74.95;99778.81;5042783;28;20056;-59
2022/05/27 00:40:04;;;;;;;6.35;3.05;;;;;;;9.06;75.74;99730.78;5042229;28;20060;-59
2022/05/27 00:42:35;;;;;;;3.40;2.35;;;;;;;8.95;75.23;99763.13;5043113;28;20373;-58
2022/05/27 00:45:06;;;;;;;8.73;2.85;;;;;;;8.48;77.40;99768.22;5042446;28;20068;-58
2022/05/27 00:47:40;;;;;;;4.68;3.28;;;;;;;8.37;77.89;99770.13;5044309;28;20053;-58
2022/05/27 00:50:15;;;;;;;8.07;3.10;;;;;;;8.58;78.11;99759.38;5043290;28;20060;-58
2022/05/27 00:52:49;;;;;;;11.07;2.90;;;;;;;8.72;77.54;99734.88;5043211;28;20061;-57
2022/05/27 00:55:23;;;;;;;10.40;2.88;;;;;;;8.60;77.49;99715.94;5043831;28;20425;-58
2022/05/27 00:57:58;;;;;;;5.85;2.90;;;;;;;9.15;77.12;99744.50;5043071;28;20124;-57
2022/05/27 01:00:29;;;;;;;5.32;2.58;;;;;;;9.10;75.55;99735.91;5042245;28;20128;-58
2022/05/27 01:03:02;;;;;;;9.10;2.88;;;;;;;8.95;75.70;99714.47;5043039;28;20122;-58
2022/05/27 01:05:32;;;;;;;5.72;2.20;;;;;;;8.95;75.46;99732.69;5041424;28;20061;-58
2022/05/27 01:08:08;;;;;;;4.95;2.58;;;;;;;9.10;75.70;99730.69;5043078;28;20060;-57
2022/05/27 01:10:49;;;;;;;2.35;1.63;;;;;;;9.18;75.35;99718.38;5043402;28;20073;-58
2022/05/27 01:13:34;;;;;;;4.53;2.28;;;;;;;8.96;75.28;99724.00;5043338;28;20063;-57
2022/05/27 01:16:15;;;;;;;6.57;2.85;;;;;;;8.88;75.68;99715.47;5043096;28;20370;-57
2022/05/27 01:22:16;;;;;;;9.25;3.40;;;;;;;8.98;76.06;99711.78;5043318;28;20049;-58
2022/05/27 01:25:08;;;;;;;7.57;3.00;;;;;;;9.05;76.13;99713.41;5042835;28;20049;-58
2022/05/27 01:27:59;;;;;;;8.32;3.22;;;;;;;9.25;75.52;99709.56;5041873;28;20060;-58
2022/05/27 01:30:36;;;;;;;5.85;3.38;;;;;;;9.43;75.77;99714.38;5041588;28;20528;-57
2022/05/27 01:33:19;;;;;;;7.88;3.25;;;;;;;9.67;74.56;99696.53;5043556;28;20623;-57
2022/05/27 01:36:02;;;;;;;7.32;3.30;;;;;;;9.55;74.88;99707.22;5041297;28;20067;-57
2022/05/27 01:38:41;;;;;;;7.32;3.63;;;;;;;9.52;75.09;99707.28;5041221;28;20049;-57
2022/05/27 01:41:16;;;;;;;10.70;4.20;;;;;;;9.73;75.21;99712.03;5043027;28;20054;-57
2022/05/27 01:43:52;;;;;;;11.25;3.42;;;;;;;9.64;73.79;99707.88;5042868;28;20049;-58
2022/05/27 01:46:27;;;;;;;4.75;3.28;;;;;;;9.31;75.67;99712.06;5041689;28;20084;-57
2022/05/27 01:49:08;;;;;;;15.98;4.05;;;;;;;9.37;74.86;99714.53;5042587;28;20055;-57
2022/05/27 01:51:42;;;;;;;12.98;3.30;;;;;;;9.33;75.04;99692.00;5042704;28;20131;-57
2022/05/27 01:54:20;;;;;;;7.15;3.47;;;;;;;9.33;75.88;99710.25;5045764;28;20063;-58
2022/05/27 01:56:56;;;;;;;8.52;3.50;;;;;;;9.31;75.18;99716.38;5046350;28;20053;-58
2022/05/27 01:59:32;;;;;;;6.28;3.05;;;;;;;9.35;75.56;99726.72;5046345;28;20344;-57
2022/05/27 02:02:10;;;;;;;4.20;3.30;;;;;;;9.27;74.34;99720.81;5045016;28;20044;-58
2022/05/27 02:04:45;;;;;;;10.43;3.33;;;;;;;8.98;75.79;99727.44;5047136;28;20063;-58
2022/05/27 02:07:21;;;;;;;9.45;3.72;;;;;;;8.81;75.74;99708.63;5045682;28;20101;-58
2022/05/27 02:09:55;;;;;;;6.57;3.65;;;;;;;9.03;76.13;99712.56;5045777;28;20319;-57
2022/05/27 02:12:31;;;;;;;6.50;3.60;;;;;;;8.82;75.08;99697.34;5046500;28;20061;-58
2022/05/27 02:15:07;;;;;;;4.60;3.40;;;;;;;8.93;75.34;99724.03;5045254;28;20060;-58
2022/05/27 02:17:43;;;;;;;9.85;4.53;;;;;;;8.91;75.75;99705.00;5046312;28;20120;-58
2022/05/27 02:20:18;;;;;;;8.10;3.92;;;;;;;9.04;75.08;99711.69;5046049;28;20113;-57
2022/05/27 02:22:53;;;;;;;4.18;3.22;;;;;;;8.92;74.56;99717.13;5045215;28;20049;-57
2022/05/27 02:25:28;;;;;;;5.13;3.15;;;;;;;9.01;75.38;99732.59;5045505;28;20053;-57
2022/05/27 02:28:04;;;;;;;13.45;4.22;;;;;;;9.07;75.25;99732.47;5046342;28;20059;-57
2022/05/27 02:30:37;;;;;;;10.63;4.97;;;;;;;8.98;75.32;99743.06;5046228;28;20047;-57
2022/05/27 02:36:05;;;;;;;13.15;3.92;;;;;;;8.70;75.74;99694.97;5046013;28;20060;-58
2022/05/27 02:38:36;;;;;;;8.43;4.20;;;;;;;8.72;75.66;99685.38;5045967;28;20085;-57
2022/05/27 02:41:15;;;;;;;5.95;3.67;;;;;;;8.99;74.81;99717.88;5045415;28;20080;-57
2022/05/27 02:44:04;;;;;;;8.05;3.63;;;;;;;8.71;75.42;99725.31;5045498;28;20057;-57
2022/05/27 02:46:43;;;;;;;13.82;4.40;;;;;;;8.71;76.46;99733.13;5044727;28;20065;-58
2022/05/27 02:49:23;;;;;;;8.47;4.13;;;;;;;8.62;77.09;99740.22;5046282;28;20057;-57
2022/05/27 02:51:59;;;;;;;;;;;;;;;8.67;76.59;99762.75;5046330;28;20072;-57
2022/05/27 02:54:33;;;;;;;6.68;3.28;;;;;;;8.62;76.93;99750.63;5043053;28;19959;-58
2022/05/27 02:57:12;;;;;;;7.43;3.70;;;;;;;8.52;77.00;99759.50;5044492;28;20053;-57
2022/05/27 02:59:43;;;;;;;22.63;4.80;;;;;;;8.69;77.02;99760.97;5045116;28;20091;-58
2022/05/27 03:02:16;;;;;;;8.05;3.90;;;;;;;8.44;76.17;99688.47;5045623;28;20053;-57
2022/05/27 03:04:51;;;;;;;8.35;4.05;;;;;;;8.15;75.94;99650.72;5044436;28;20064;-57
2022/05/27 03:07:35;;;;;;;13.05;4.32;;;;;;;8.83;76.74;99732.91;5045519;28;20065;-57
2022/05/27 03:10:33;;;;;;;11.15;4.50;;;;;;;8.83;76.27;99722.50;5044557;28;20088;-58
2022/05/27 03:13:20;;;;;;;10.00;4.40;;;;;;;9.04;75.74;99732.53;5043813;28;20299;-57
2022/05/27 03:16:04;;;;;;;8.98;4.50;;;;;;;8.99;74.47;99729.16;5043883;28;20079;-57
2022/05/27 03:18:57;;;;;;;11.07;4.40;;;;;;;8.66;75.18;99703.69;5044213;28;20132;-57
2022/05/27 03:21:42;;;;;;;13.80;3.72;;;;;;;8.78;75.87;99726.94;5044833;28;20147;-57
2022/05/27 03:24:21;;;;;;;12.70;4.63;;;;;;;9.07;75.21;99737.69;5044946;28;20148;-58
2022/05/27 03:27:06;;;;;;;10.52;2.97;;;;;;;9.12;74.63;99723.72;5044201;28;20115;-58
2022/05/27 03:29:44;;;;;;;8.30;3.45;;;;;;;9.40;74.28;99730.09;5044644;28;20108;-57
2022/05/27 03:32:22;;;;;;;7.45;3.78;;;;;;;9.34;73.00;99717.19;5044863;28;20084;-58
2022/05/27 03:34:57;;;;;;;11.43;3.75;;;;;;;9.16;73.98;99679.31;5044945;28;20060;-58
2022/05/27 03:37:35;;;;;;;11.50;3.55;;;;;;;9.29;73.53;99721.66;5042552;28;20075;-58
2022/05/27 03:40:12;;;;;;;7.97;3.85;;;;;;;8.76;73.75;99663.56;5044661;28;20049;-58
2022/05/27 03:42:44;;;;;;;8.90;3.60;;;;;;;8.29;74.62;99626.22;5042778;28;20367;-58
2022/05/27 03:45:16;;;;;;;10.57;3.83;;;;;;;8.94;74.75;99717.97;5043939;28;20412;-58
2022/05/27 03:47:48;;;;;;;15.50;3.55;;;;;;;8.95;74.15;99711.84;5044746;28;20052;-58
2022/05/27 03:50:20;;;;;;;12.73;4.00;;;;;;;9.13;75.05;99699.38;5044862;28;20124;-58
2022/05/27 03:52:54;;;;;;;6.45;3.25;;;;;;;9.23;72.96;99672.22;5043738;28;20053;-58
2022/05/27 03:55:27;;;;;;;7.55;3.60;;;;;;;9.46;73.83;99703.91;5044079;28;20181;-58
2022/05/27 03:57:58;;;;;;;12.40;3.58;;;;;;;9.48;73.55;99699.53;5044483;28;20120;-58
2022/05/27 04:00:29;;;;;;;10.20;3.20;;;;;;;9.19;73.38;99709.69;5043666;28;20053;-58
2022/05/27 04:02:59;;;;;;;14.95;3.42;;;;;;;9.10;74.00;99710.72;5044205;28;20133;-58
2022/05/27 04:05:30;;;;;;;10.27;3.65;;;;;;;9.03;74.65;99699.53;5043922;28;20061;-57
2022/05/27 04:08:02;;;;;;;5.97;3.55;;;;;;;9.32;73.92;99698.13;5044145;28;20080;-57
2022/05/27 04:10:32;;;;;;;11.27;3.70;;;;;;;9.62;73.47;99687.94;5042802;28;20056;-58
2022/05/27 04:13:03;;;;;;;6.40;3.28;;;;;;;9.65;72.31;99698.28;5042660;28;20059;-58
2022/05/27 04:15:33;;;;;;;6.10;3.20;;;;;;;9.58;72.96;99694.09;5043579;28;20052;-59
2022/05/27 04:18:04;;;;;;;9.23;3.10;;;;;;;9.44;72.55;99695.25;5044105;28;20399;-58
2022/05/27 04:20:34;;;;;;;6.35;3.08;;;;;;;9.47;72.92;99700.41;5044108;28;20059;-58
2022/05/27 04:23:07;;;;;;;5.38;3.47;;;;;;;9.50;72.55;99695.13;5044233;28;20120;-58
2022/05/27 04:25:38;;;;;;;7.15;3.55;;;;;;;9.47;72.77;99679.53;5043005;28;20057;-58
2022/05/27 04:28:08;;;;;;;5.35;3.17;;;;;;;9.18;73.01;99643.63;5044611;28;20670;-58
2022/05/27 04:30:39;;;;;;;9.55;3.45;;;;;;;9.40;73.34;99672.72;5044435;28;20053;-58
2022/05/27 04:33:10;;;;;;;12.65;3.50;;;;;;;9.23;73.67;99674.81;5043583;28;20052;-58
2022/05/27 04:35:41;;;;;;;5.53;3.25;;;;;;;8.64;73.85;99548.34;5043590;28;20057;-58
2022/05/27 04:38:13;;;;;;;2.72;2.10;;;;;;;9.45;73.11;99664.81;5043088;28;20116;-58
2022/05/27 04:40:44;;;;;;;3.70;2.90;;;;;;;9.02;74.02;99655.28;5041436;28;20932;-59
2022/05/27 04:43:14;;;;;;;8.15;3.45;;;;;;;9.22;74.31;99649.66;5043438;28;20045;-59
2022/05/27 04:45:45;;;;;;;5.15;3.20;;;;;;;9.24;73.85;99655.72;5044159;28;20080;-58
2022/05/27 04:48:18;;;;;;;12.45;4.10;;;;;;;9.38;73.72;99664.06;5043718;28;20053;-58
2022/05/27 04:50:49;;;;;;;11.65;3.55;;;;;;;9.04;73.34;99590.97;5043400;28;20068;-58
2022/05/27 04:53:21;;;;;;;6.57;3.75;;;;;;;9.48;73.37;99655.19;5043149;28;20109;-58
2022/05/27 04:55:52;;;;;;;16.02;4.40;;;;;;;9.57;73.06;99653.28;5042586;28;20062;-58
2022/05/27 04:58:22;;;;;;;10.82;3.75;;;;;;;9.69;73.24;99668.66;5042581;28;20326;-59
2022/05/27 05:00:53;;;;;;;19.17;3.55;;;;;;;9.51;72.35;99654.28;5042560;28;20045;-59
2022/05/27 05:03:23;;;;;;;12.38;3.88;;;;;;;9.44;73.37;99658.75;5042634;28;20095;-59
2022/05/27 05:05:54;;;;;;;7.20;3.25;;;;;;;9.44;72.84;99653.53;5043450;28;20287;-58
2022/05/27 05:08:33;;;;;;;10.75;3.35;;;;;;;9.27;72.71;99640.00;5043204;28;20053;-58
2022/05/27 05:11:05;;;;;;;32.63;5.03;;;;;;;9.18;73.73;99645.38;5043258;28;20065;-58
2022/05/27 05:13:37;;;;;;;24.13;4.38;;;;;;;9.36;74.52;99634.59;5042330;28;20060;-59
2022/05/27 05:16:07;;;;;;;8.65;3.30;;;;;;;9.53;72.72;99643.78;5042086;28;20372;-59
2022/05/27 05:18:38;;;;;;;4.88;2.75;;;;;;;9.50;72.70;99637.75;5043956;28;20053;-59
2022/05/27 05:21:09;;;;;;;11.63;3.38;;;;;;;9.55;72.99;99639.41;5043799;28;20061;-58
2022/05/27 05:23:41;;;;;;;13.27;3.50;;;;;;;9.58;72.10;99634.97;5043546;28;20064;-59
2022/05/27 05:26:12;;;;;;;9.90;2.95;;;;;;;9.49;72.84;99629.97;5042431;28;20085;-59
2022/05/27 05:28:42;;;;;;;11.48;4.25;;;;;;;9.66;73.59;99640.00;5041261;28;20120;-59
2022/05/27 05:31:16;;;;;;;11.38;3.83;;;;;;;9.80;72.35;99618.81;5042317;28;20356;-58
2022/05/27 05:33:47;;;;;;;33.55;4.85;;;;;;;9.86;72.75;99629.09;5042953;28;20100;-58
2022/05/27 05:36:17;;;;;;;7.13;3.63;;;;;;;9.80;71.53;99629.25;5042867;28;20111;-58
2022/05/27 05:38:50;;;;;;;4.25;3.42;;;;;;;9.63;71.87;99621.81;5041709;28;20073;-58
2022/05/27 05:41:27;;;;;;;13.50;4.53;;;;;;;9.64;73.02;99618.34;5042690;28;20047;-59
2022/05/27 05:43:58;;;;;;;8.68;3.60;;;;;;;9.84;72.08;99623.94;5041998;28;20060;-59
2022/05/27 05:46:29;;;;;;;6.97;4.30;;;;;;;9.83;72.67;99619.59;5041384;28;20064;-58
2022/05/27 05:48:59;;;;;;;7.32;3.60;;;;;;;9.64;71.67;99600.94;5041382;28;20125;-59
2022/05/27 05:51:30;;;;;;;17.17;3.85;;;;;;;9.54;72.55;99598.56;5042545;28;20080;-59
2022/05/27 05:54:02;;;;;;;18.75;4.35;;;;;;;9.47;74.03;99611.72;5043068;28;20116;-59
2022/05/27 05:56:33;;;;;;;15.60;3.05;;;;;;;8.74;72.87;99498.69;5041517;28;20063;-58
2022/05/27 05:59:04;;;;;;;10.23;3.50;;;;;;;9.21;73.15;99574.94;5042380;28;20064;-59
2022/05/27 06:01:34;;;;;;;11.75;3.90;;;;;;;9.55;73.34;99598.53;5041873;28;20059;-58
2022/05/27 06:04:05;;;;;;;11.05;3.85;;;;;;;9.72;73.43;99600.75;5041817;28;20060;-59
2022/05/27 06:06:36;;;;;;;10.73;2.95;;;;;;;9.80;72.08;99603.16;5041501;28;20056;-56
2022/05/27 06:09:09;;;;;;;14.88;4.20;;;;;;;9.48;73.26;99595.22;5041621;28;20061;-58
2022/05/27 06:11:39;;;;;;;17.05;4.90;;;;;;;9.51;73.52;99596.91;5042503;28;20875;-58
2022/05/27 06:14:10;;;;;;;14.73;3.97;;;;;;;9.35;73.16;99606.78;5043119;28;20045;-59
2022/05/27 06:16:40;;;;;;;9.43;4.57;;;;;;;9.40;73.43;99599.72;5043141;28;20429;-58
2022/05/27 06:19:11;;;;;;;10.60;4.28;;;;;;;9.45;73.18;99592.66;5042814;28;20055;-58
2022/05/27 06:21:41;;;;;;;8.40;4.60;;;;;;;9.22;73.50;99554.06;5042132;28;20061;-59
2022/05/27 06:24:14;;;;;;;14.05;4.22;;;;;;;9.48;73.84;99592.59;5038650;28;20107;-57
2022/05/27 06:26:44;;;;;;;15.25;3.95;;;;;;;9.39;72.95;99592.81;5041713;28;20049;-59
2022/05/27 06:34:50;;;;;;;26.23;5.15;;;;;;;9.19;74.89;99600.22;5042285;28;20307;-59
2022/05/27 06:37:23;;;;;;;9.60;4.20;;;;;;;9.33;74.40;99587.72;5041286;28;20068;-59
2022/05/27 06:39:56;;;;;;;8.88;3.85;;;;;;;9.34;73.42;99589.44;5042981;28;20070;-59
2022/05/27 06:42:27;;;;;;;14.73;4.32;;;;;;;9.34;74.07;99588.59;5045063;28;20470;-59
2022/05/27 06:45:08;;;;;;;7.28;3.65;;;;;;;9.19;73.58;99548.06;5045911;28;20061;-57
2022/05/27 06:47:40;;;;;;;8.13;3.17;;;;;;;9.21;72.98;99598.41;5045672;28;20067;-57
2022/05/27 06:50:11;;;;;;;6.65;2.97;;;;;;;9.02;73.80;99583.16;5045993;28;20116;-57
2022/05/27 06:52:42;;;;;;;8.52;3.15;;;;;;;9.02;74.20;99588.38;5045372;28;20065;-59
2022/05/27 06:55:16;;;;;;;9.38;3.50;;;;;;;8.98;74.86;99586.72;5045753;28;20533;-57
2022/05/27 06:57:47;;;;;;;13.52;4.22;;;;;;;9.15;74.82;99593.34;5044858;28;20065;-58
2022/05/27 07:00:18;;;;;;;13.68;3.75;;;;;;;9.19;74.92;99585.41;5043343;28;20063;-59
2022/05/27 07:02:49;;;;;;;11.82;3.65;;;;;;;9.27;74.56;99582.66;5043996;28;20044;-57
2022/05/27 07:05:19;;;;;;;11.93;4.90;;;;;;;9.21;74.31;99582.75;5044985;28;20288;-57
2022/05/27 07:07:52;;;;;;;9.60;3.72;;;;;;;9.09;74.78;99593.47;5045320;28;20057;-57
2022/05/27 07:10:24;;;;;;;11.82;3.90;;;;;;;8.99;75.64;99588.44;5045191;28;20119;-58
2022/05/27 07:12:58;;;;;;;15.35;3.83;;;;;;;8.94;75.19;99585.06;5045450;28;20057;-57
2022/05/27 07:15:30;;;;;;;12.27;4.22;;;;;;;8.59;75.55;99531.94;5045307;28;20116;-57
2022/05/27 07:18:03;;;;;;;6.80;3.55;;;;;;;8.69;76.16;99578.66;5044757;28;20044;-57
2022/05/27 07:20:34;;;;;;;14.13;5.00;;;;;;;8.53;77.16;99573.72;5044908;28;20049;-57
2022/05/27 07:23:05;;;;;;;25.85;6.40;;;;;;;8.56;77.57;99573.69;5044694;28;20052;-57
2022/05/27 07:25:37;;;;;;;11.73;5.22;;;;;;;8.51;77.43;99569.44;5045225;28;20128;-57
2022/05/27 07:28:11;;;;;;;10.45;4.13;;;;;;;8.40;78.04;99572.25;5045228;28;20072;-56
2022/05/27 07:30:41;;;;;;;18.13;5.13;;;;;;;8.38;77.89;99568.78;5045436;28;20053;-57
2022/05/27 07:33:13;;;;;;;11.32;3.90;;;;;;;8.37;78.07;99572.28;5044588;28;20068;-58
2022/05/27 07:35:44;;;;;;;8.90;4.05;;;;;;;8.14;78.34;99563.13;5043870;28;20045;-57
2022/05/27 07:38:15;;;;;;;15.30;4.32;;;;;;;8.08;78.82;99565.81;5044782;28;20262;-58
2022/05/27 07:40:47;;;;;;;22.23;5.35;;;;;;;8.09;79.08;99570.16;5043962;28;20112;-57
2022/05/27 07:43:19;;;;;;;11.10;4.03;;;;;;;8.10;79.04;99558.00;5043954;28;20084;-57
2022/05/27 07:45:50;;;;;;;13.48;4.70;;;;;;;8.05;78.90;99565.88;5043904;28;20049;-57
2022/05/27 07:48:21;;;;;;;15.27;4.50;;;;;;;8.02;79.07;99571.16;5044999;28;20049;-57
2022/05/27 07:50:51;;;;;;;38.75;6.25;;;;;;;8.03;78.98;99572.84;5043041;28;20068;-58
2022/05/27 07:53:23;;;;;;;11.95;4.65;;;;;;;7.98;79.37;99564.28;5043935;28;20112;-57
2022/05/27 07:55:55;;;;;;;27.35;5.43;;;;;;;7.87;79.45;99561.00;5042443;28;20049;-57
2022/05/27 07:58:26;;;;;;;14.70;4.85;;;;;;;7.90;79.68;99561.81;5043590;28;20053;-58
2022/05/27 08:00:57;;;;;;;8.50;4.40;;;;;;;7.80;79.32;99559.38;5040484;28;20063;-57
2022/05/27 08:03:27;;;;;;;10.95;4.63;;;;;;;7.73;79.56;99569.88;5043481;28;20159;-57
2022/05/27 08:06:00;;;;;;;15.55;4.45;;;;;;;7.50;79.95;99561.59;5043213;28;20053;-57
2022/05/27 08:08:31;;;;;;;14.25;5.45;;;;;;;7.25;80.52;99556.75;5044506;28;20317;-58
2022/05/27 08:11:07;;;;;;;11.38;4.88;;;;;;;7.14;81.02;99579.44;5043537;28;20065;-57
2022/05/27 08:13:38;;;;;;;12.48;5.10;;;;;;;7.10;81.94;99582.94;5044720;28;20053;-58
2022/05/27 08:16:08;;;;;;;11.70;4.50;;;;;;;7.03;81.76;99571.75;5044589;28;20363;-58
2022/05/27 08:18:39;;;;;;;19.00;5.80;;;;;;;6.96;82.33;99577.03;5043404;28;20061;-57
2022/05/27 08:21:11;;;;;;;33.92;6.07;;;;;;;6.89;82.57;99566.75;5042940;28;20099;-59
2022/05/27 08:23:42;;;;;;;11.05;4.45;;;;;;;6.84;82.65;99560.75;5042559;28;20052;-58
2022/05/27 08:26:14;;;;;;;14.05;5.13;;;;;;;6.72;82.97;99550.50;5042753;28;20103;-59
2022/05/27 08:28:45;;;;;;;14.98;5.15;;;;;;;6.55;83.22;99568.03;5043889;28;20150;-59
2022/05/27 08:31:16;;;;;;;17.42;5.20;;;;;;;6.50;83.70;99556.84;5042641;28;20052;-59
2022/05/27 08:39:22;;;;;;;20.08;6.55;;;;;;;6.24;84.91;99589.06;5042978;28;20060;-58
2022/05/27 08:42:18;;;;;;;10.82;6.35;;;;;;;6.20;85.19;99590.00;5043830;28;20057;-58
2022/05/27 08:44:50;;;;;;;12.63;6.10;;;;;;;5.85;85.21;99547.06;5042767;28;20383;-58
2022/05/27 08:47:30;;;;;;;23.55;7.03;;;;;;;5.96;85.78;99576.38;5043727;28;20078;-58
2022/05/27 08:50:09;;;;;;;11.80;6.20;;;;;;;6.07;85.95;99580.63;5043664;28;20065;-58
2022/05/27 08:52:45;;;;;;;9.57;5.25;;;;;;;6.08;85.95;99577.16;5041409;28;20063;-58
2022/05/27 09:01:15;;;;;;;12.13;4.93;;;;;;;5.74;86.53;99583.44;5042182;28;20061;-60
2022/05/27 09:03:50;;;;;;;17.45;6.88;;;;;;;5.07;86.71;99460.44;5042616;28;20099;-58
2022/05/27 09:06:33;;;;;;;13.00;6.35;;;;;;;5.71;87.11;99572.22;5043111;28;20045;-57
2022/05/27 09:09:07;;;;;;;13.23;6.20;;;;;;;5.77;87.09;99577.38;5042749;28;20099;-58
2022/05/27 09:11:47;;;;;;;13.73;6.68;;;;;;;5.78;86.90;99595.50;5043831;28;20046;-58
2022/05/27 09:14:24;;;;;;;12.57;6.55;;;;;;;5.62;87.58;99579.22;5042591;28;20067;-58
2022/05/27 09:16:59;;;;;;;18.27;7.53;;;;;;;5.56;87.63;99574.06;5041866;28;20053;-58
2022/05/27 09:19:53;;;;;;;19.00;7.57;;;;;;;5.63;87.62;99575.72;5042743;28;20060;-59
2022/05/27 09:22:34;;;;;;;20.90;7.63;;;;;;;5.52;87.39;99556.81;5042333;28;20049;-59
2022/05/27 09:25:17;;;;;;;13.30;7.47;;;;;;;5.53;87.85;99579.25;5042761;28;20163;-58
2022/05/27 09:27:57;;;;;;;15.02;6.70;;;;;;;5.52;87.91;99572.38;5042925;28;20125;-58
2022/05/27 09:30:32;;;;;;;15.20;7.63;;;;;;;5.36;88.23;99575.91;5042829;28;20112;-58
2022/05/27 09:33:05;;;;;;;12.73;6.68;;;;;;;5.11;88.68;99518.22;5042773;28;20053;-58
2022/05/27 09:35:42;;;;;;;14.27;7.85;;;;;;;5.39;88.38;99575.91;5040939;28;20060;-58
2022/05/27 09:38:19;;;;;;;15.52;7.68;;;;;;;5.27;88.51;99544.91;5040270;28;20259;-58
2022/05/27 09:40:54;;;;;;;21.17;8.38;;;;;;;5.28;88.74;99557.84;5042950;28;20083;-59
2022/05/27 09:43:30;;;;;;;17.45;8.02;;;;;;;5.32;88.92;99563.88;5041679;28;20061;-58
2022/05/27 09:46:04;;;;;;;18.70;8.45;;;;;;;5.16;89.25;99558.75;5041007;28;20312;-58
2022/05/27 09:48:35;;;;;;;14.98;8.52;;;;;;;5.30;89.72;99560.44;5041124;28;20624;-57
2022/05/27 09:51:14;;;;;;;12.68;7.72;;;;;;;5.17;89.09;99550.13;5043386;28;20083;-58
2022/05/27 09:53:48;;;;;;;18.05;8.02;;;;;;;5.22;89.26;99572.53;5042711;28;20128;-59
2022/05/27 09:56:36;;;;;;;22.42;8.90;;;;;;;5.15;89.54;99572.59;5041996;28;20099;-58
2022/05/27 09:59:23;;;;;;;16.25;7.80;;;;;;;5.14;89.72;99554.47;5042810;28;20068;-58
2022/05/27 10:02:16;;;;;;;18.73;8.68;;;;;;;5.11;89.79;99549.31;5042856;28;20047;-59
2022/05/27 10:04:58;;;;;;;14.65;7.10;;;;;;;4.99;90.33;99534.69;5040925;28;20067;-58
2022/05/27 10:07:39;;;;;;;19.88;9.27;;;;;;;4.95;90.27;99539.03;5042243;28;20109;-59
2022/05/27 10:10:29;;;;;;;15.55;8.23;;;;;;;4.94;90.55;99531.25;5042206;28;20072;-59
2022/05/27 10:13:14;;;;;;;12.90;7.40;;;;;;;4.71;90.34;99493.41;5043016;28;20251;-59
2022/05/27 10:15:44;;;;;;;15.10;7.82;;;;;;;4.93;90.51;99539.91;5045455;28;20474;-58
2022/05/27 10:18:20;;;;;;;9.52;5.35;;;;;;;4.94;90.77;99551.97;5045491;28;20049;-58
2022/05/27 10:20:53;;;;;;;14.93;7.22;;;;;;;4.57;90.76;99490.06;5046565;28;20311;-59
2022/05/27 10:23:29;;;;;;;12.80;8.02;;;;;;;4.85;90.87;99536.50;5045673;28;20051;-58
2022/05/27 10:26:19;;;;;;;18.58;8.73;;;;;;;4.80;91.42;99527.91;5045366;28;20331;-59
2022/05/27 10:29:03;;;;;;;13.05;7.63;;;;;;;4.92;90.88;99533.03;5043761;28;20044;-59
2022/05/27 10:31:34;;;;;;;10.63;7.18;;;;;;;4.86;91.19;99523.53;5045097;28;20045;-58
2022/05/27 10:34:06;;;;;;;16.65;8.65;;;;;;;4.85;91.34;99533.94;5045464;28;20092;-58
2022/05/27 10:36:56;;;;;;;14.38;7.88;;;;;;;4.84;91.11;99529.59;5045022;28;20073;-59
2022/05/27 10:39:31;;;;;;;10.48;7.53;;;;;;;4.86;91.43;99533.03;5046262;28;20059;-59
2022/05/27 10:42:22;;;;;;;11.82;6.85;;;;;;;4.79;91.22;99531.34;5044122;28;20051;-59
2022/05/27 10:45:07;;;;;;;23.52;8.75;;;;;;;4.72;91.39;99546.91;5043975;28;20279;-59
2022/05/27 10:48:13;;;;;;;16.73;7.90;;;;;;;4.74;92.10;99540.00;5045590;28;20057;-59
2022/05/27 10:50:53;;;;;;;14.93;8.55;;;;;;;4.79;92.16;99541.69;5041002;28;20053;-59
2022/05/27 10:53:47;;;;;;;18.45;8.40;;;;;;;4.80;91.92;99543.44;5045568;28;20080;-59
2022/05/27 10:56:34;;;;;;;14.18;7.90;;;;;;;4.78;91.56;99540.00;5043423;28;20065;-59
2022/05/27 11:02:31;;;;;;;19.15;7.63;;;;;;;4.71;91.99;99536.56;5046176;28;20041;-59
2022/05/27 11:05:31;;;;;;;13.02;7.60;;;;;;;4.67;92.19;99533.13;5044432;28;20056;-59
2022/05/27 11:08:22;;;;;;;18.17;7.90;;;;;;;4.47;91.96;99499.59;5039188;28;20057;-58
2022/05/27 11:11:03;;;;;;;21.58;8.82;;;;;;;4.79;92.45;99541.69;5045321;28;20045;-59
2022/05/27 11:16:57;;;;;;;10.30;5.95;;;;;;;4.73;91.69;99546.03;5043742;28;20053;-59
2022/05/27 11:19:53;;;;;;;10.65;5.82;;;;;;;4.71;91.70;99544.31;5044711;28;20063;-59
2022/05/27 11:22:35;;;;;;;11.13;6.30;;;;;;;4.74;91.98;99540.00;5043670;28;20350;-59
2022/05/27 11:25:28;;;;;;;9.88;6.97;;;;;;;4.61;91.93;99516.78;5044299;28;20111;-58
2022/05/27 11:28:28;;;;;;;11.82;7.22;;;;;;;4.78;91.67;99550.34;5044301;28;20056;-58
2022/05/27 11:31:11;;;;;;;9.90;6.13;;;;;;;4.73;91.69;99548.63;5043789;28;20084;-59
2022/05/27 11:33:54;;;;;;;11.43;6.90;;;;;;;4.43;91.71;99502.19;5045222;28;20597;-59
2022/05/27 11:36:43;;;;;;;8.95;6.03;;;;;;;4.69;91.71;99556.41;5045041;28;20091;-59
2022/05/27 11:39:47;;;;;;;13.13;6.60;;;;;;;4.49;92.05;99535.78;5043584;28;20056;-59
2022/05/27 11:42:34;;;;;;;9.68;6.30;;;;;;;4.84;92.43;99550.31;5043991;28;20558;-58
2022/05/27 11:45:15;;;;;;;9.75;6.43;;;;;;;4.83;91.86;99533.06;5044191;28;21073;-59
2022/05/27 11:48:01;;;;;;;12.07;6.53;;;;;;;4.84;91.37;99534.78;5043593;28;20045;-59
2022/05/27 11:51:05;;;;;;;10.35;6.93;;;;;;;4.77;91.86;99539.13;5044504;28;20051;-58
2022/05/27 11:54:02;;;;;;;14.73;7.50;;;;;;;4.74;92.35;99539.13;5036943;28;20045;-59
2022/05/27 11:56:44;;;;;;;12.43;6.32;;;;;;;4.79;92.17;99531.34;5044619;28;20049;-59
2022/05/27 11:59:22;;;;;;;17.73;6.53;;;;;;;4.70;92.70;99546.06;5043767;28;20049;-59
2022/05/27 12:01:59;;;;;;;10.32;6.53;;;;;;;4.48;92.79;99484.91;5044586;28;20065;-59
2022/05/27 12:04:37;;;;;;;12.57;6.13;;;;;;;4.79;92.64;99546.88;5007727;28;20128;-59
2022/05/27 12:07:17;;;;;;;17.85;7.65;;;;;;;4.64;92.77;99522.81;5045881;28;20068;-59
2022/05/27 12:09:51;;;;;;;;;;;;;;;4.75;92.61;99531.38;5044832;28;20120;-58
2022/05/27 12:12:26;;;;;;;29.77;6.05;;;;;;;4.72;92.65;99526.22;5044247;28;19925;-58
2022/05/27 12:15:03;;;;;;;14.25;7.00;;;;;;;4.80;92.84;99543.44;5044334;28;20143;-59
2022/05/27 12:17:40;;;;;;;25.13;6.85;;;;;;;4.78;92.84;99532.22;5043042;28;20079;-59
2022/05/27 12:20:16;;;;;;;16.05;7.97;;;;;;;4.77;92.94;99526.19;5043963;28;20076;-59
2022/05/27 12:22:49;;;;;;;18.27;7.95;;;;;;;4.69;92.95;99528.81;5044676;28;20124;-59
2022/05/27 12:25:23;;;;;;;24.88;7.97;;;;;;;4.82;92.93;99526.16;5043509;28;20347;-58
2022/05/27 12:27:55;;;;;;;36.80;7.60;;;;;;;4.81;93.23;99519.25;5043476;28;20061;-59
2022/05/27 12:30:32;;;;;;;24.92;8.20;;;;;;;4.83;93.02;99530.47;5043422;28;20105;-59
2022/05/27 12:33:03;;;;;;;16.75;7.85;;;;;;;4.81;93.16;99529.63;5043367;28;20068;-59
2022/05/27 12:35:53;;;;;;;21.40;7.50;;;;;;;4.73;92.96;99522.75;5044564;28;20394;-59
2022/05/27 12:38:29;;;;;;;18.23;7.97;;;;;;;4.74;93.27;99511.53;5043045;28;20343;-59
2022/05/27 12:41:02;;;;;;;44.33;8.23;;;;;;;4.84;93.49;99519.25;5043562;28;20087;-59
2022/05/27 12:43:36;;;;;;;35.33;8.23;;;;;;;4.73;93.22;99503.78;5043098;28;20420;-59
2022/05/27 12:46:33;;;;;;;22.67;8.63;;;;;;;4.75;93.38;99515.84;5044009;28;20065;-59
2022/05/27 12:49:27;;;;;;;38.63;8.43;;;;;;;4.48;93.48;99459.03;5043826;28;20056;-59